createdAt,value
2019-05-25T00:02:09.090Z,1.77
2019-05-25T00:04:37.384Z,1.50
2019-05-25T00:07:05.849Z,1.60
2019-05-25T00:09:34.109Z,1.60
2019-05-25T00:12:02.383Z,1.40
2019-05-25T00:14:30.677Z,1.70
2019-05-25T00:16:58.949Z,1.73
2019-05-25T00:19:27.416Z,1.70
2019-05-25T00:21:55.691Z,1.77
2019-05-25T00:24:23.984Z,1.60
2019-05-25T00:26:52.265Z,1.57
2019-05-25T00:29:20.626Z,1.70
2019-05-25T00:31:48.902Z,1.77
2019-05-25T00:34:17.195Z,1.80
2019-05-25T00:36:45.918Z,1.63
2019-05-25T00:39:14.203Z,2.00
2019-05-25T00:41:42.478Z,1.50
2019-05-25T00:44:10.774Z,1.80
2019-05-25T00:46:39.118Z,1.87
2019-05-25T00:49:07.417Z,1.70
2019-05-25T00:51:35.692Z,1.60
2019-05-25T00:54:03.975Z,1.70
2019-05-25T00:56:32.261Z,1.70
2019-05-25T00:59:00.550Z,1.77
2019-05-25T01:01:28.819Z,1.70
2019-05-25T01:03:57.114Z,1.60
2019-05-25T01:06:25.522Z,1.50
2019-05-25T01:08:53.828Z,1.77
2019-05-25T01:11:22.189Z,1.73
2019-05-25T01:13:50.566Z,1.60
2019-05-25T01:16:18.837Z,1.60
2019-05-25T01:18:47.128Z,1.70
2019-05-25T01:21:15.435Z,1.57
2019-05-25T01:23:43.712Z,1.97
2019-05-25T01:26:11.999Z,1.90
2019-05-25T01:28:40.264Z,1.90
2019-05-25T01:31:08.557Z,1.73
2019-05-25T01:33:36.849Z,1.60
2019-05-25T01:36:05.141Z,1.80
2019-05-25T01:38:33.421Z,1.80
2019-05-25T01:41:01.717Z,1.90
2019-05-25T01:43:29.986Z,1.80
2019-05-25T01:45:58.301Z,1.93
2019-05-25T01:48:26.688Z,1.70
2019-05-25T01:50:55.004Z,1.70
2019-05-25T01:53:23.273Z,1.80
2019-05-25T01:55:51.656Z,1.70
2019-05-25T01:58:19.996Z,1.50
2019-05-25T02:00:48.292Z,1.70
2019-05-25T02:03:16.566Z,1.50
2019-05-25T02:05:44.851Z,1.80
2019-05-25T02:08:13.126Z,1.73
2019-05-25T02:10:41.417Z,1.73
2019-05-25T02:13:09.690Z,1.80
2019-05-25T02:15:38.002Z,1.90
2019-05-25T02:18:06.352Z,1.77
2019-05-25T02:20:34.626Z,1.60
2019-05-25T02:23:02.925Z,1.73
2019-05-25T02:25:31.272Z,1.90
2019-05-25T02:27:59.573Z,2.10
2019-05-25T02:30:27.851Z,1.70
2019-05-25T02:32:56.239Z,1.50
2019-05-25T02:35:26.326Z,1.70
2019-05-25T02:37:55.415Z,1.90
2019-05-25T02:40:23.755Z,1.67
2019-05-25T02:42:52.056Z,1.80
2019-05-25T02:45:20.331Z,1.87
2019-05-25T02:47:48.779Z,1.60
2019-05-25T02:50:17.059Z,1.70
2019-05-25T02:52:45.351Z,1.83
2019-05-25T02:55:13.691Z,1.70
2019-05-25T02:57:42.052Z,1.87
2019-05-25T03:00:11.448Z,1.80
2019-05-25T03:02:39.811Z,1.93
2019-05-25T03:05:09.099Z,1.80
2019-05-25T03:07:37.399Z,1.50
2019-05-25T03:10:06.266Z,1.80
2019-05-25T03:12:34.587Z,1.60
2019-05-25T03:15:03.538Z,1.80
2019-05-25T03:17:32.140Z,1.80
2019-05-25T03:20:00.419Z,1.83
2019-05-25T03:22:28.780Z,2.00
2019-05-25T03:24:57.054Z,1.83
2019-05-25T03:27:25.361Z,1.80
2019-05-25T03:29:53.640Z,1.80
2019-05-25T03:32:21.930Z,1.67
2019-05-25T03:34:50.274Z,1.40
2019-05-25T03:37:18.564Z,1.63
2019-05-25T03:39:46.910Z,1.70
2019-05-25T03:42:15.195Z,1.90
2019-05-25T03:44:43.469Z,1.70
2019-05-25T03:47:11.750Z,2.00
2019-05-25T03:49:40.046Z,1.73
2019-05-25T03:52:08.324Z,1.80
2019-05-25T03:54:36.686Z,1.70
2019-05-25T03:57:04.971Z,1.63
2019-05-25T03:59:33.328Z,1.80
2019-05-25T04:02:01.608Z,1.97
2019-05-25T04:04:29.935Z,1.80
2019-05-25T04:06:58.261Z,1.60
2019-05-25T04:09:26.545Z,1.70
2019-05-25T04:11:54.908Z,1.50
2019-05-25T04:14:23.266Z,1.90
2019-05-25T04:16:51.583Z,1.83
2019-05-25T04:19:19.936Z,1.80
2019-05-25T04:21:48.223Z,1.93
2019-05-25T04:24:17.259Z,1.77
2019-05-25T04:26:45.629Z,1.80
2019-05-25T04:29:14.009Z,1.73
2019-05-25T04:31:42.631Z,1.67
2019-05-25T04:34:10.910Z,1.77
2019-05-25T04:36:39.231Z,1.80
2019-05-25T04:39:08.179Z,1.87
2019-05-25T04:41:36.619Z,1.90
2019-05-25T04:44:04.947Z,1.80
2019-05-25T04:46:34.076Z,1.80
2019-05-25T04:49:02.422Z,1.87
2019-05-25T04:51:30.714Z,2.10
2019-05-25T04:53:59.135Z,1.70
2019-05-25T04:56:38.830Z,1.63
2019-05-25T04:58:57.511Z,1.80
2019-05-25T05:01:25.802Z,1.90
2019-05-25T05:03:54.565Z,1.70
2019-05-25T05:06:22.913Z,1.70
2019-05-25T05:08:51.206Z,1.70
2019-05-25T05:11:19.559Z,1.70
2019-05-25T05:13:47.839Z,1.90
2019-05-25T05:16:16.124Z,1.90
2019-05-25T05:18:44.405Z,1.90
2019-05-25T05:21:12.703Z,1.93
2019-05-25T05:23:41.758Z,1.90
2019-05-25T05:26:10.244Z,1.70
2019-05-25T05:28:38.598Z,1.77
2019-05-25T05:31:22.480Z,1.93
2019-05-25T05:33:37.114Z,1.63
2019-05-25T05:36:05.526Z,1.70
2019-05-25T05:38:34.540Z,2.10
2019-05-25T05:41:03.317Z,1.90
2019-05-25T05:43:31.669Z,1.90
2019-05-25T05:46:00.746Z,1.50
2019-05-25T05:48:29.125Z,1.63
2019-05-25T05:51:00.279Z,1.60
2019-05-25T05:53:29.089Z,1.83
2019-05-25T05:55:57.400Z,1.90
2019-05-25T05:58:25.833Z,1.60
2019-05-25T06:00:54.163Z,1.77
2019-05-25T06:03:22.534Z,1.63
2019-05-25T06:05:50.933Z,2.00
2019-05-25T06:08:19.278Z,1.60
2019-05-25T06:10:47.644Z,1.37
2019-05-25T06:13:15.984Z,1.40
2019-05-25T06:15:44.330Z,1.50
2019-05-25T06:18:12.619Z,1.57
2019-05-25T06:20:40.899Z,1.53
2019-05-25T06:23:12.281Z,1.30
2019-05-25T06:25:39.305Z,1.40
2019-05-25T06:28:07.711Z,1.50
2019-05-25T06:30:36.050Z,1.57
2019-05-25T06:33:04.369Z,1.33
2019-05-25T06:35:32.726Z,1.50
2019-05-25T06:38:01.017Z,1.47
2019-05-25T06:40:29.404Z,1.40
2019-05-25T06:42:57.876Z,1.33
2019-05-25T06:45:26.167Z,1.27
2019-05-25T06:47:54.577Z,1.60
2019-05-25T06:50:22.931Z,1.60
2019-05-25T06:52:51.311Z,1.37
2019-05-25T06:55:19.827Z,1.43
2019-05-25T06:57:48.116Z,1.60
2019-05-25T07:00:16.717Z,1.40
2019-05-25T07:02:45.060Z,1.30
2019-05-25T07:05:13.438Z,1.40
2019-05-25T07:07:41.823Z,1.40
2019-05-25T07:10:10.361Z,1.50
2019-05-25T07:12:38.718Z,1.60
2019-05-25T07:15:07.506Z,2.03
2019-05-25T07:17:35.905Z,3.13
2019-05-25T07:20:07.525Z,4.50
2019-05-25T07:22:35.877Z,5.10
2019-05-25T07:25:05.408Z,6.40
2019-05-25T07:27:33.782Z,7.47
2019-05-25T07:30:02.165Z,8.10
2019-05-25T07:32:30.563Z,9.20
2019-05-25T07:34:58.961Z,9.47
2019-05-25T07:37:27.371Z,10.30
2019-05-25T07:39:55.733Z,9.93
2019-05-25T07:42:24.085Z,10.60
2019-05-25T07:44:52.832Z,10.70
2019-05-25T07:47:21.351Z,10.70
2019-05-25T07:49:49.958Z,10.90
2019-05-25T07:52:18.401Z,11.03
2019-05-25T07:54:46.818Z,11.70
2019-05-25T07:57:15.181Z,11.90
2019-05-25T07:59:43.587Z,11.40
2019-05-25T08:02:11.946Z,11.60
2019-05-25T08:04:40.278Z,10.07
2019-05-25T08:07:08.564Z,10.80
2019-05-25T08:09:36.954Z,11.00
2019-05-25T08:12:05.326Z,10.33
2019-05-25T08:14:33.740Z,10.73
2019-05-25T08:17:02.155Z,10.27
2019-05-25T08:19:30.537Z,9.97
2019-05-25T08:21:58.915Z,10.37
2019-05-25T08:24:27.278Z,9.13
2019-05-25T08:26:55.840Z,8.73
2019-05-25T08:29:24.195Z,8.13
2019-05-25T08:31:52.591Z,7.60
2019-05-25T08:34:21.019Z,8.20
2019-05-25T08:36:49.372Z,8.10
2019-05-25T08:39:18.204Z,8.17
2019-05-25T08:41:46.532Z,8.83
2019-05-25T08:44:14.880Z,8.20
2019-05-25T08:46:43.172Z,7.80
2019-05-25T08:49:11.458Z,8.33
2019-05-25T08:51:39.832Z,8.00
2019-05-25T08:54:08.101Z,7.40
2019-05-25T08:56:36.379Z,7.97
2019-05-25T08:59:04.677Z,7.80
2019-05-25T09:01:33.041Z,7.73
2019-05-25T09:04:01.512Z,7.73
2019-05-25T09:06:29.858Z,7.20
2019-05-25T09:08:58.227Z,7.00
2019-05-25T09:11:26.768Z,7.57
2019-05-25T09:13:55.127Z,7.17
2019-05-25T09:16:23.404Z,6.10
2019-05-25T09:18:51.695Z,5.57
2019-05-25T09:21:19.977Z,5.10
2019-05-25T09:23:48.937Z,4.80
2019-05-25T09:26:17.299Z,4.40
2019-05-25T09:28:45.585Z,4.40
2019-05-25T09:31:13.956Z,4.07
2019-05-25T09:33:42.247Z,4.23
2019-05-25T09:36:10.529Z,4.67
2019-05-25T09:38:38.912Z,4.93
2019-05-25T09:41:07.199Z,4.60
2019-05-25T09:43:35.565Z,5.30
2019-05-25T09:46:03.847Z,5.43
2019-05-25T09:48:32.140Z,5.33
2019-05-25T09:51:00.420Z,5.20
2019-05-25T09:53:28.703Z,4.40
2019-05-25T09:55:57.002Z,4.33
2019-05-25T09:58:25.355Z,4.40
2019-05-25T10:00:53.873Z,3.80
2019-05-25T10:03:22.219Z,3.80
2019-05-25T10:05:50.515Z,3.50
2019-05-25T10:08:18.795Z,3.30
2019-05-25T10:10:47.091Z,3.00
2019-05-25T10:13:15.382Z,3.43
2019-05-25T10:15:43.658Z,3.23
2019-05-25T10:18:12.101Z,3.00
2019-05-25T10:20:40.745Z,3.00
2019-05-25T10:23:09.048Z,2.70
2019-05-25T10:25:37.321Z,2.90
2019-05-25T10:28:05.689Z,2.37
2019-05-25T10:30:34.051Z,2.60
2019-05-25T10:33:02.420Z,2.70
2019-05-25T10:35:30.721Z,2.70
2019-05-25T10:37:59.090Z,2.80
2019-05-25T10:40:27.446Z,2.70
2019-05-25T10:42:55.746Z,2.70
2019-05-25T10:45:24.401Z,2.50
2019-05-25T10:47:52.721Z,2.37
2019-05-25T10:50:21.065Z,2.23
2019-05-25T10:52:49.413Z,2.40
2019-05-25T10:55:17.738Z,2.77
2019-05-25T10:57:46.019Z,2.60
2019-05-25T11:00:14.417Z,2.70
2019-05-25T11:02:42.769Z,2.77
2019-05-25T11:05:11.263Z,3.00
2019-05-25T11:07:39.533Z,2.80
2019-05-25T11:10:10.969Z,3.10
2019-05-25T11:12:39.348Z,2.97
2019-05-25T11:15:07.720Z,2.90
2019-05-25T11:17:36.069Z,2.80
2019-05-25T11:20:06.822Z,2.90
2019-05-25T11:22:35.123Z,2.70
2019-05-25T11:25:04.651Z,2.80
2019-05-25T11:27:33.004Z,2.80
2019-05-25T11:30:08.991Z,2.83
2019-05-25T11:32:31.372Z,3.00
2019-05-25T11:34:59.663Z,2.57
2019-05-25T11:37:27.966Z,3.03
2019-05-25T11:39:56.328Z,2.80
2019-05-25T11:42:24.693Z,2.67
2019-05-25T11:44:52.976Z,2.87
2019-05-25T11:47:21.274Z,3.00
2019-05-25T11:49:49.555Z,2.70
2019-05-25T11:52:17.857Z,2.80
2019-05-25T11:54:46.145Z,2.83
2019-05-25T11:57:14.457Z,2.80
2019-05-25T11:59:42.739Z,3.00
2019-05-25T12:02:11.050Z,2.47
2019-05-25T12:04:39.404Z,2.97
2019-05-25T12:07:07.761Z,2.77
2019-05-25T12:09:36.213Z,2.90
2019-05-25T12:12:04.586Z,2.70
2019-05-25T12:14:32.944Z,2.97
2019-05-25T12:17:01.251Z,2.93
2019-05-25T12:19:29.592Z,2.90
2019-05-25T12:21:57.893Z,2.70
2019-05-25T12:24:26.237Z,2.87
2019-05-25T12:26:54.604Z,3.00
2019-05-25T12:29:22.961Z,2.90
2019-05-25T12:31:51.448Z,3.00
2019-05-25T12:34:19.784Z,3.20
2019-05-25T12:36:48.082Z,3.57
2019-05-25T12:39:16.373Z,3.97
2019-05-25T12:41:44.736Z,4.03
2019-05-25T12:44:13.015Z,3.70
2019-05-25T12:46:41.292Z,4.13
2019-05-25T12:49:09.592Z,3.93
2019-05-25T12:51:37.875Z,4.13
2019-05-25T12:54:06.175Z,3.83
2019-05-25T12:56:34.463Z,3.93
2019-05-25T12:59:02.743Z,3.53
2019-05-25T13:01:31.015Z,3.47
2019-05-25T13:03:59.328Z,3.30
2019-05-25T13:06:27.601Z,3.40
2019-05-25T13:08:55.904Z,3.27
2019-05-25T13:11:24.271Z,3.47
2019-05-25T13:13:52.638Z,3.30
2019-05-25T13:16:20.933Z,3.00
2019-05-25T13:18:49.215Z,2.83
2019-05-25T13:21:17.585Z,3.10
2019-05-25T13:23:45.954Z,3.20
2019-05-25T13:26:14.330Z,3.13
2019-05-25T13:28:42.614Z,3.10
2019-05-25T13:31:12.226Z,3.10
2019-05-25T13:33:40.763Z,2.90
2019-05-25T13:36:09.131Z,2.90
2019-05-25T13:38:37.439Z,2.70
2019-05-25T13:41:05.824Z,2.30
2019-05-25T13:43:34.176Z,2.67
2019-05-25T13:46:02.604Z,2.33
2019-05-25T13:48:30.975Z,2.67
2019-05-25T13:50:59.360Z,2.53
2019-05-25T13:53:27.652Z,2.80
2019-05-25T13:55:55.994Z,2.00
2019-05-25T13:58:24.302Z,2.30
2019-05-25T14:00:52.666Z,2.03
2019-05-25T14:03:21.023Z,2.13
2019-05-25T14:05:49.316Z,1.67
2019-05-25T14:08:20.340Z,1.90
2019-05-25T14:10:48.703Z,1.60
2019-05-25T14:13:17.056Z,1.67
2019-05-25T14:15:45.334Z,1.50
2019-05-25T14:18:13.634Z,1.73
2019-05-25T14:20:41.985Z,1.43
2019-05-25T14:23:10.473Z,1.50
2019-05-25T14:25:38.742Z,1.43
2019-05-25T14:28:07.277Z,1.50
2019-05-25T14:30:35.629Z,1.43
2019-05-25T14:33:04.236Z,1.30
2019-05-25T14:35:32.563Z,1.20
2019-05-25T14:38:02.499Z,1.30
2019-05-25T14:40:32.505Z,1.30
2019-05-25T14:43:01.206Z,1.30
2019-05-25T14:45:32.246Z,1.27
2019-05-25T14:48:00.519Z,1.30
2019-05-25T14:50:28.820Z,1.20
2019-05-25T14:52:57.087Z,1.30
2019-05-25T14:55:25.400Z,1.30
2019-05-25T14:57:53.679Z,1.00
2019-05-25T15:00:22.207Z,1.00
2019-05-25T15:02:50.473Z,1.30
2019-05-25T15:05:18.765Z,1.30
2019-05-25T15:07:49.864Z,1.30
2019-05-25T15:10:18.522Z,1.20
2019-05-25T15:12:46.885Z,1.10
2019-05-25T15:15:15.369Z,1.20
2019-05-25T15:17:43.663Z,1.10
2019-05-25T15:20:12.008Z,1.00
2019-05-25T15:22:40.306Z,1.20
2019-05-25T15:25:08.654Z,1.20
2019-05-25T15:27:37.028Z,1.00
2019-05-25T15:30:07.970Z,1.30
2019-05-25T15:32:36.348Z,1.20
2019-05-25T15:35:07.702Z,1.00
2019-05-25T15:37:36.017Z,1.37
2019-05-25T15:40:07.867Z,1.00
2019-05-25T15:42:36.257Z,1.17
2019-05-25T15:45:05.945Z,1.13
2019-05-25T15:47:34.243Z,1.00
2019-05-25T15:50:02.552Z,1.00
2019-05-25T15:52:32.108Z,0.90
2019-05-25T15:55:00.446Z,1.00
2019-05-25T15:57:28.817Z,1.03
2019-05-25T15:59:57.115Z,0.90
2019-05-25T16:02:36.431Z,1.00
2019-05-25T16:04:55.415Z,1.10
2019-05-25T16:07:23.785Z,1.10
2019-05-25T16:09:52.083Z,1.10
2019-05-25T16:12:20.369Z,1.10
2019-05-25T16:14:48.735Z,1.00
2019-05-25T16:17:17.097Z,1.10
2019-05-25T16:19:45.389Z,1.00
2019-05-25T16:22:13.676Z,1.20
2019-05-25T16:24:42.045Z,1.13
2019-05-25T16:27:10.394Z,1.20
2019-05-25T16:29:38.697Z,1.13
2019-05-25T16:32:06.979Z,1.10
2019-05-25T16:34:35.350Z,1.20
2019-05-25T16:37:03.707Z,1.30
2019-05-25T16:39:32.121Z,1.00
2019-05-25T16:42:00.414Z,1.13
2019-05-25T16:44:28.765Z,1.30
2019-05-25T16:46:57.152Z,1.40
2019-05-25T16:49:25.497Z,1.30
2019-05-25T16:51:53.792Z,1.27
2019-05-25T16:54:22.073Z,1.20
2019-05-25T16:56:50.434Z,1.40
2019-05-25T16:59:18.714Z,1.10
2019-05-25T17:01:48.748Z,1.40
2019-05-25T17:04:17.103Z,1.20
2019-05-25T17:06:45.381Z,1.20
2019-05-25T17:09:13.677Z,1.20
2019-05-25T17:11:42.172Z,1.30
2019-05-25T17:14:10.472Z,1.20
2019-05-25T17:16:38.826Z,1.30
2019-05-25T17:19:07.194Z,1.27
2019-05-25T17:21:35.486Z,1.30
2019-05-25T17:24:03.870Z,1.50
2019-05-25T17:26:32.160Z,1.43
2019-05-25T17:29:00.521Z,1.30
2019-05-25T17:31:28.890Z,1.40
2019-05-25T17:33:57.221Z,1.40
2019-05-25T17:36:25.549Z,1.30
2019-05-25T17:38:53.910Z,1.20
2019-05-25T17:41:22.220Z,1.57
2019-05-25T17:43:50.500Z,1.60
2019-05-25T17:46:18.865Z,1.30
2019-05-25T17:48:47.223Z,1.40
2019-05-25T17:51:15.526Z,1.40
2019-05-25T17:53:43.800Z,1.30
2019-05-25T17:56:12.164Z,1.40
2019-05-25T17:58:40.535Z,1.30
2019-05-25T18:01:08.915Z,1.30
2019-05-25T18:03:37.285Z,1.30
2019-05-25T18:06:05.643Z,1.20
2019-05-25T18:08:34.071Z,1.40
2019-05-25T18:11:02.392Z,1.20
2019-05-25T18:13:30.733Z,1.20
2019-05-25T18:15:59.035Z,1.47
2019-05-25T18:18:27.354Z,1.30
2019-05-25T18:20:55.705Z,1.57
2019-05-25T18:23:24.008Z,1.37
2019-05-25T18:25:52.288Z,1.30
2019-05-25T18:28:20.656Z,1.60
2019-05-25T18:30:48.944Z,1.43
2019-05-25T18:33:17.257Z,1.50
2019-05-25T18:35:45.673Z,1.50
2019-05-25T18:38:13.973Z,1.50
2019-05-25T18:40:42.592Z,1.63
2019-05-25T18:43:10.888Z,1.60
2019-05-25T18:45:39.162Z,1.70
2019-05-25T18:48:07.456Z,1.60
2019-05-25T18:50:35.751Z,1.90
2019-05-25T18:53:04.115Z,1.60
2019-05-25T18:55:32.471Z,1.73
2019-05-25T18:58:00.820Z,1.80
2019-05-25T19:00:30.842Z,1.80
2019-05-25T19:02:59.171Z,1.83
2019-05-25T19:05:27.539Z,1.87
2019-05-25T19:07:55.971Z,1.60
2019-05-25T19:10:24.259Z,1.80
2019-05-25T19:12:52.534Z,1.73
2019-05-25T19:15:20.828Z,1.80
2019-05-25T19:17:49.189Z,1.93
2019-05-25T19:20:21.026Z,1.70
2019-05-25T19:22:47.579Z,1.77
2019-05-25T19:25:15.869Z,2.03
2019-05-25T19:27:44.150Z,1.87
2019-05-25T19:30:12.463Z,2.10
2019-05-25T19:32:40.789Z,2.10
2019-05-25T19:35:09.787Z,1.87
2019-05-25T19:37:42.085Z,1.80
2019-05-25T19:40:09.572Z,1.70
2019-05-25T19:42:38.145Z,1.90
2019-05-25T19:45:07.352Z,1.47
2019-05-25T19:47:35.625Z,1.40
2019-05-25T19:50:05.748Z,1.70
2019-05-25T19:52:34.204Z,1.40
2019-05-25T19:55:02.971Z,1.60
2019-05-25T19:57:31.303Z,1.50
2019-05-25T19:59:59.608Z,1.67
2019-05-25T20:02:27.973Z,1.67
2019-05-25T20:04:56.328Z,1.50
2019-05-25T20:07:24.601Z,1.57
2019-05-25T20:09:52.888Z,1.40
2019-05-25T20:12:21.163Z,1.80
2019-05-25T20:14:49.724Z,1.67
2019-05-25T20:17:18.080Z,1.80
2019-05-25T20:19:46.390Z,1.50
2019-05-25T20:22:14.725Z,1.63
2019-05-25T20:24:43.007Z,1.70
2019-05-25T20:27:11.308Z,1.60
2019-05-25T20:29:39.577Z,1.70
2019-05-25T20:32:07.871Z,1.57
2019-05-25T20:34:36.451Z,1.80
2019-05-25T20:37:04.891Z,1.70
2019-05-25T20:39:33.259Z,1.80
2019-05-25T20:42:01.619Z,1.80
2019-05-25T20:44:29.906Z,2.07
2019-05-25T20:46:58.188Z,1.90
2019-05-25T20:49:26.554Z,2.00
2019-05-25T20:51:54.825Z,1.80
2019-05-25T20:54:23.133Z,1.97
2019-05-25T20:56:51.477Z,1.90
2019-05-25T20:59:19.791Z,1.93
2019-05-25T21:01:48.160Z,1.80
2019-05-25T21:04:16.495Z,1.93
2019-05-25T21:06:44.777Z,1.63
2019-05-25T21:09:13.147Z,1.93
2019-05-25T21:11:41.420Z,1.80
2019-05-25T21:14:09.697Z,1.70
2019-05-25T21:16:38.000Z,1.80
2019-05-25T21:19:06.299Z,1.90
2019-05-25T21:21:34.663Z,1.80
2019-05-25T21:24:03.106Z,1.80
2019-05-25T21:26:31.472Z,1.90
2019-05-25T21:28:59.750Z,1.70
2019-05-25T21:31:28.109Z,1.87
2019-05-25T21:33:56.455Z,1.80
2019-05-25T21:36:24.809Z,1.83
2019-05-25T21:38:53.086Z,1.80
2019-05-25T21:41:21.405Z,1.90
2019-05-25T21:43:49.745Z,2.00
2019-05-25T21:46:18.038Z,1.87
2019-05-25T21:48:46.313Z,1.73
2019-05-25T21:51:14.608Z,1.90
2019-05-25T21:53:42.880Z,2.10
2019-05-25T21:56:11.173Z,1.67
2019-05-25T21:58:39.444Z,1.73
2019-05-25T22:01:07.788Z,2.23
2019-05-25T22:03:36.080Z,2.00
2019-05-25T22:06:04.431Z,1.73
2019-05-25T22:08:33.095Z,1.70
2019-05-25T22:11:01.858Z,1.80
2019-05-25T22:13:30.210Z,1.60
2019-05-25T22:15:58.495Z,1.90
2019-05-25T22:18:26.798Z,1.93
2019-05-25T22:20:55.152Z,1.90
2019-05-25T22:23:23.433Z,1.87
2019-05-25T22:25:51.784Z,1.63
2019-05-25T22:28:20.078Z,2.13
2019-05-25T22:30:48.375Z,2.00
2019-05-25T22:33:16.662Z,2.00
2019-05-25T22:35:44.941Z,1.90
2019-05-25T22:38:13.231Z,2.00
2019-05-25T22:40:41.573Z,1.83
2019-05-25T22:43:09.849Z,1.90
2019-05-25T22:45:38.149Z,1.70
2019-05-25T22:48:06.497Z,1.83
2019-05-25T22:50:34.863Z,1.57
2019-05-25T22:53:03.138Z,1.80
2019-05-25T22:55:31.422Z,1.93
2019-05-25T22:57:59.702Z,2.00
2019-05-25T23:00:28.005Z,1.83
2019-05-25T23:02:56.281Z,2.00
2019-05-25T23:05:24.634Z,2.00
2019-05-25T23:07:52.999Z,2.27
2019-05-25T23:10:21.746Z,1.60
2019-05-25T23:12:50.104Z,1.70
2019-05-25T23:15:18.377Z,1.90
2019-05-25T23:17:46.751Z,1.80
2019-05-25T23:20:15.094Z,1.97
2019-05-25T23:22:43.390Z,1.87
2019-05-25T23:25:11.662Z,2.20
2019-05-25T23:27:39.968Z,1.87
2019-05-25T23:30:08.238Z,1.70
2019-05-25T23:32:36.512Z,1.80
2019-05-25T23:35:05.576Z,1.70
2019-05-25T23:37:33.916Z,1.80
2019-05-25T23:40:02.210Z,1.90
2019-05-25T23:42:30.494Z,1.87
2019-05-25T23:44:58.774Z,1.83
2019-05-25T23:47:27.047Z,1.90
2019-05-25T23:49:55.339Z,1.90
2019-05-25T23:52:25.330Z,1.60
2019-05-25T23:54:53.630Z,1.83
2019-05-25T23:57:21.908Z,1.80
2019-05-25T23:59:50.181Z,1.90
